Time;durP1;ratioP1;P1;durP2;ratioP2;P2;SDS_P1;SDS_P2;PMS_P1;PMS_P2;Temp;Humidity;BMP_temperature;BMP_pressure;BME280_temperature;BME280_humidity;BME280_pressure;Samples;Min_cycle;Max_cycle;Signal;HPM_P1;HPM_P2
2021/09/24 08:06:57;;;;;;;4.87;3.20;;;19.40;99.90;;;;;;4953475;29;20583;-75
2021/09/24 08:09:24;;;;;;;9.77;3.10;;;19.20;99.90;;;;;;4955484;29;20702;-74
2021/09/24 08:11:51;;;;;;;5.90;2.97;;;19.10;99.90;;;;;;4955309;29;20251;-74
2021/09/24 08:14:18;;;;;;;6.53;3.25;;;19.30;99.90;;;;;;4955171;29;20235;-72
2021/09/24 08:16:44;;;;;;;5.97;3.30;;;19.30;99.90;;;;;;4955012;29;20701;-73
2021/09/24 08:19:11;;;;;;;6.85;3.25;;;19.40;99.90;;;;;;4955341;29;20218;-77
2021/09/24 08:21:38;;;;;;;7.25;2.85;;;19.40;99.90;;;;;;4955223;29;20228;-74
2021/09/24 08:24:07;;;;;;;5.97;3.30;;;19.40;99.90;;;;;;4955537;29;20211;-78
2021/09/24 08:26:34;;;;;;;4.97;3.03;;;19.40;99.90;;;;;;4955072;29;20212;-75
2021/09/24 08:29:00;;;;;;;8.50;3.97;;;19.40;99.90;;;;;;4955103;29;20684;-73
2021/09/24 08:31:27;;;;;;;5.25;3.05;;;19.50;99.90;;;;;;4954988;29;20227;-75
2021/09/24 08:33:57;;;;;;;5.60;3.22;;;19.60;99.90;;;;;;4955122;29;20240;-74
2021/09/24 08:36:24;;;;;;;8.35;2.50;;;19.70;99.90;;;;;;4954865;29;20242;-75
2021/09/24 08:38:51;;;;;;;4.60;2.75;;;19.70;99.90;;;;;;4955085;29;20214;-73
2021/09/24 08:41:25;;;;;;;8.07;3.25;;;19.80;99.90;;;;;;4955033;29;20215;-77
2021/09/24 08:43:52;;;;;;;5.80;2.75;;;19.80;99.90;;;;;;4954889;29;20235;-73
2021/09/24 08:46:19;;;;;;;4.32;2.67;;;19.90;99.90;;;;;;4955058;29;20208;-73
2021/09/24 08:48:46;;;;;;;7.85;2.60;;;19.90;99.90;;;;;;4955001;29;20219;-72
2021/09/24 08:51:13;;;;;;;4.97;2.70;;;20.10;99.90;;;;;;4954703;29;20682;-74
2021/09/24 08:53:40;;;;;;;12.43;3.58;;;20.20;99.90;;;;;;4955151;29;20714;-74
2021/09/24 08:56:07;;;;;;;6.45;2.83;;;20.40;99.90;;;;;;4955156;29;20208;-74
2021/09/24 08:58:35;;;;;;;6.00;3.22;;;20.50;99.90;;;;;;4954563;29;20579;-73
2021/09/24 09:01:03;;;;;;;5.78;2.88;;;20.50;99.90;;;;;;4954847;29;20216;-75
2021/09/24 09:03:38;;;;;;;5.57;2.60;;;20.50;99.90;;;;;;4954734;29;20681;-74
2021/09/24 09:06:05;;;;;;;10.48;3.25;;;20.70;99.90;;;;;;4954554;29;20685;-79
2021/09/24 09:08:32;;;;;;;4.63;2.65;;;20.80;99.90;;;;;;4957872;28;20218;-77
2021/09/24 09:11:01;;;;;;;7.10;2.85;;;20.90;99.90;;;;;;4958545;29;20215;-74
2021/09/24 09:13:31;;;;;;;5.55;2.67;;;21.00;99.90;;;;;;4958432;29;20239;-73
2021/09/24 09:16:01;;;;;;;7.40;2.80;;;21.10;99.90;;;;;;4958309;29;20671;-72
2021/09/24 09:18:32;;;;;;;5.15;2.45;;;21.10;99.90;;;;;;4958406;29;20214;-74
2021/09/24 09:20:59;;;;;;;5.00;2.55;;;21.30;99.90;;;;;;4958069;29;20274;-73
2021/09/24 09:23:27;;;;;;;11.27;3.53;;;21.50;99.90;;;;;;4957767;29;20228;-74
2021/09/24 09:25:56;;;;;;;4.63;2.33;;;21.70;99.90;;;;;;4958191;29;20208;-73
2021/09/24 09:28:30;;;;;;;5.28;2.40;;;21.70;99.90;;;;;;4958177;29;20212;-74
2021/09/24 09:30:59;;;;;;;5.97;1.85;;;21.70;99.90;;;;;;4957946;29;20208;-73
2021/09/24 09:33:27;;;;;;;4.45;2.28;;;21.70;99.90;;;;;;4957818;29;20351;-72
2021/09/24 09:35:56;;;;;;;4.65;2.35;;;21.70;99.90;;;;;;4957519;29;20207;-73
2021/09/24 09:38:26;;;;;;;3.55;1.63;;;21.90;99.90;;;;;;4957061;29;20204;-74
2021/09/24 09:40:56;;;;;;;6.30;2.40;;;22.10;99.90;;;;;;4957812;29;20683;-72
2021/09/24 09:43:28;;;;;;;8.95;2.60;;;22.20;99.90;;;;;;4957331;29;20568;-75
2021/09/24 09:45:56;;;;;;;5.10;2.10;;;22.10;99.90;;;;;;4957515;29;20244;-72
2021/09/24 09:48:24;;;;;;;4.97;1.95;;;22.10;99.90;;;;;;4957181;29;20215;-75
2021/09/24 09:50:51;;;;;;;4.85;1.83;;;22.00;99.90;;;;;;4957309;29;20215;-72
2021/09/24 09:53:19;;;;;;;7.47;2.42;;;22.00;99.90;;;;;;4957680;29;20247;-73
2021/09/24 09:55:50;;;;;;;3.10;1.90;;;22.20;99.90;;;;;;4957865;29;20237;-73
2021/09/24 09:58:18;;;;;;;4.05;2.22;;;22.20;99.90;;;;;;4957940;29;20212;-74
2021/09/24 10:00:58;;;;;;;2.85;2.25;;;22.40;99.90;;;;;;4957825;29;20218;-72
2021/09/24 10:03:32;;;;;;;4.45;2.00;;;22.30;99.90;;;;;;4957912;29;20321;-73
2021/09/24 10:05:59;;;;;;;6.57;2.13;;;22.40;99.90;;;;;;4957410;29;20216;-76
2021/09/24 10:08:28;;;;;;;2.63;1.90;;;22.50;99.90;;;;;;4957588;29;20299;-73
2021/09/24 10:11:00;;;;;;;6.97;2.17;;;22.60;99.90;;;;;;4957564;29;20303;-73
2021/09/24 10:13:30;;;;;;;3.80;1.77;;;22.70;99.90;;;;;;4957214;29;20246;-73
2021/09/24 10:15:57;;;;;;;3.08;1.80;;;22.80;99.90;;;;;;4957553;29;20212;-74
2021/09/24 10:18:24;;;;;;;3.42;1.60;;;22.80;99.90;;;;;;4956873;28;20204;-73
2021/09/24 10:20:53;;;;;;;2.17;1.45;;;22.90;99.90;;;;;;4957055;29;20296;-73
2021/09/24 10:23:20;;;;;;;3.15;1.80;;;22.70;99.90;;;;;;4957399;29;20246;-73
2021/09/24 10:25:50;;;;;;;3.13;1.52;;;22.70;99.90;;;;;;4957175;29;20303;-75
2021/09/24 10:28:19;;;;;;;3.10;2.25;;;22.50;99.90;;;;;;4956594;29;20667;-74
2021/09/24 10:30:46;;;;;;;2.05;1.45;;;22.40;99.90;;;;;;4957133;29;20216;-75
2021/09/24 10:33:16;;;;;;;2.17;1.45;;;22.50;99.90;;;;;;4957078;29;20236;-74
2021/09/24 10:35:49;;;;;;;3.33;1.55;;;22.40;99.90;;;;;;4956946;29;20208;-73
2021/09/24 10:38:19;;;;;;;4.63;2.00;;;22.10;99.90;;;;;;4956844;29;20552;-73
2021/09/24 10:40:58;;;;;;;1.92;1.38;;;22.00;99.90;;;;;;4956162;29;20295;-74
2021/09/24 10:43:25;;;;;;;4.20;1.40;;;22.00;99.90;;;;;;4956003;29;20703;-74
2021/09/24 10:45:51;;;;;;;4.13;2.13;;;22.00;99.90;;;;;;4955780;29;20212;-74
2021/09/24 10:48:20;;;;;;;1.95;1.45;;;21.90;99.90;;;;;;4955993;29;20212;-75
2021/09/24 10:50:53;;;;;;;3.05;1.52;;;21.90;99.90;;;;;;4955771;29;20266;-74
2021/09/24 10:53:23;;;;;;;2.08;1.45;;;22.00;99.90;;;;;;4955749;29;20691;-74
2021/09/24 10:56:29;;;;;;;2.08;1.52;;;22.00;99.90;;;;;;4955815;29;20654;-74
2021/09/24 10:58:57;;;;;;;2.15;1.60;;;22.00;99.90;;;;;;4955909;29;20212;-73
2021/09/24 11:01:36;;;;;;;4.40;1.58;;;22.00;99.90;;;;;;4955552;29;20211;-73
2021/09/24 11:04:10;;;;;;;5.13;1.67;;;22.10;99.90;;;;;;4956020;29;20227;-75
2021/09/24 11:06:49;;;;;;;2.17;1.40;;;22.20;99.90;;;;;;4955563;29;20568;-73
2021/09/24 11:09:18;;;;;;;3.47;1.60;;;22.20;99.90;;;;;;4955568;29;20667;-75
2021/09/24 11:11:48;;;;;;;2.15;1.33;;;22.30;99.90;;;;;;4956113;29;20855;-76
2021/09/24 11:14:24;;;;;;;3.80;2.08;;;22.50;99.90;;;;;;4952815;28;20237;-74
2021/09/24 11:16:53;;;;;;;2.97;1.30;;;22.60;99.90;;;;;;4955283;29;20678;-75
2021/09/24 11:19:45;;;;;;;2.25;1.30;;;22.50;99.90;;;;;;4955756;29;20204;-74
2021/09/24 11:22:21;;;;;;;2.05;1.20;;;22.40;99.90;;;;;;4941596;29;20239;-75
2021/09/24 11:25:11;;;;;;;1.83;1.50;;;22.30;99.90;;;;;;4955690;29;20208;-76
2021/09/24 11:27:40;;;;;;;1.42;1.30;;;22.30;99.90;;;;;;4955951;29;20214;-76
2021/09/24 11:30:14;;;;;;;3.70;1.20;;;22.40;99.90;;;;;;4956027;28;20208;-77
2021/09/24 11:32:43;;;;;;;2.90;1.20;;;22.60;99.90;;;;;;4943240;29;20228;-74
2021/09/24 11:35:11;;;;;;;1.48;0.90;;;22.70;99.90;;;;;;4953687;29;20236;-74
2021/09/24 11:37:41;;;;;;;3.47;1.10;;;22.80;99.90;;;;;;4953535;29;20204;-76
2021/09/24 11:40:09;;;;;;;1.20;1.00;;;23.00;99.90;;;;;;4953532;29;20254;-78
2021/09/24 11:42:39;;;;;;;2.65;1.20;;;22.90;99.90;;;;;;4953344;29;20287;-74
2021/09/24 11:45:09;;;;;;;2.78;1.40;;;22.90;99.90;;;;;;4952985;29;20208;-73
2021/09/24 11:47:41;;;;;;;2.10;1.20;;;22.90;99.90;;;;;;4953390;29;20208;-75
2021/09/24 11:50:11;;;;;;;1.70;1.20;;;22.90;99.90;;;;;;4953479;29;20236;-74
2021/09/24 11:52:41;;;;;;;2.75;1.38;;;22.90;99.90;;;;;;4938476;29;20232;-75
2021/09/24 11:55:17;;;;;;;2.85;0.98;;;23.00;99.90;;;;;;4945852;29;20242;-75
2021/09/24 11:57:56;;;;;;;1.83;1.00;;;23.00;99.90;;;;;;4953351;29;20214;-74
2021/09/24 12:00:24;;;;;;;1.70;1.00;;;23.10;99.90;;;;;;4952805;29;20687;-73
2021/09/24 12:02:50;;;;;;;1.27;0.70;;;23.20;99.90;;;;;;4951896;29;20238;-74
2021/09/24 12:05:18;;;;;;;2.10;0.75;;;23.00;99.90;;;;;;4953195;29;20228;-76
2021/09/24 12:07:51;;;;;;;1.77;0.70;;;22.80;99.90;;;;;;4952855;29;20548;-76
2021/09/24 12:10:27;;;;;;;2.13;0.80;;;22.60;99.90;;;;;;4939176;29;20205;-75
2021/09/24 12:13:08;;;;;;;3.17;1.00;;;22.50;99.90;;;;;;4933755;29;20718;-75
2021/09/24 12:15:56;;;;;;;2.17;0.77;;;22.30;99.90;;;;;;4948910;29;20277;-74
2021/09/24 12:18:26;;;;;;;3.00;1.00;;;22.30;99.90;;;;;;4952964;29;20225;-74
2021/09/24 12:21:00;;;;;;;3.28;0.85;;;22.20;99.90;;;;;;4953104;29;20222;-73
2021/09/24 12:23:28;;;;;;;2.58;0.70;;;22.20;99.90;;;;;;4952583;29;20250;-73
2021/09/24 12:26:00;;;;;;;2.05;0.85;;;22.20;99.90;;;;;;4952780;29;20211;-73
2021/09/24 12:28:29;;;;;;;3.10;0.90;;;22.10;99.90;;;;;;4953022;29;20649;-74
2021/09/24 12:30:56;;;;;;;1.85;0.70;;;22.00;99.90;;;;;;4951757;29;20204;-74
2021/09/24 12:33:23;;;;;;;3.67;0.70;;;21.90;99.90;;;;;;4952450;29;20247;-73
2021/09/24 12:35:58;;;;;;;0.70;0.68;;;21.90;99.90;;;;;;4952181;29;20262;-73
2021/09/24 12:38:25;;;;;;;2.25;0.70;;;21.90;99.90;;;;;;4952634;29;20218;-74
2021/09/24 12:41:10;;;;;;;0.60;0.60;;;21.70;99.90;;;;;;4953176;29;20218;-74
2021/09/24 12:43:39;;;;;;;0.70;0.50;;;21.60;99.90;;;;;;4953107;29;20215;-74
2021/09/24 12:46:07;;;;;;;0.47;0.47;;;21.50;99.90;;;;;;4952844;29;20218;-75
2021/09/24 12:48:36;;;;;;;1.38;0.40;;;21.50;99.90;;;;;;4953224;29;20249;-73
2021/09/24 12:51:04;;;;;;;0.40;0.40;;;21.70;99.90;;;;;;4953085;29;20207;-74
2021/09/24 12:53:33;;;;;;;1.45;0.40;;;21.90;99.90;;;;;;4952636;29;20639;-74
2021/09/24 12:56:01;;;;;;;0.88;0.38;;;22.10;99.90;;;;;;4952910;29;20667;-73
2021/09/24 12:58:33;;;;;;;0.40;0.30;;;22.10;99.90;;;;;;4953212;29;20735;-73
2021/09/24 13:01:03;;;;;;;0.50;0.35;;;22.20;99.90;;;;;;4952810;29;20215;-74
2021/09/24 13:03:32;;;;;;;1.02;0.45;;;22.00;99.90;;;;;;4953233;29;20222;-73
2021/09/24 13:06:00;;;;;;;0.57;0.40;;;22.00;99.90;;;;;;4952933;29;20230;-77
2021/09/24 13:08:28;;;;;;;9.70;2.03;;;22.00;99.90;;;;;;4952348;29;20214;-73
2021/09/24 13:10:56;;;;;;;1.55;0.43;;;22.10;99.90;;;;;;4953304;29;20208;-73
2021/09/24 13:13:24;;;;;;;0.50;0.50;;;22.20;99.90;;;;;;4952742;29;20231;-72
2021/09/24 13:15:51;;;;;;;1.80;0.55;;;22.10;99.90;;;;;;4952411;29;20594;-74
2021/09/24 13:18:20;;;;;;;1.55;0.40;;;22.20;99.90;;;;;;4952820;29;20670;-74
2021/09/24 13:20:49;;;;;;;0.70;0.47;;;22.30;99.90;;;;;;4954105;29;20208;-73
2021/09/24 13:23:19;;;;;;;0.45;0.40;;;22.20;99.90;;;;;;4955024;29;20263;-75
2021/09/24 13:25:47;;;;;;;1.80;0.65;;;22.20;99.90;;;;;;4954841;29;20352;-75
2021/09/24 13:28:14;;;;;;;0.68;0.30;;;22.10;99.90;;;;;;4954217;29;20537;-72
2021/09/24 13:30:43;;;;;;;0.50;0.40;;;22.30;99.90;;;;;;4954330;29;20209;-73
2021/09/24 13:33:11;;;;;;;0.68;0.40;;;22.40;99.90;;;;;;4954107;29;20752;-73
2021/09/24 13:35:39;;;;;;;3.65;0.60;;;22.30;99.90;;;;;;4954063;29;20238;-73
2021/09/24 13:38:07;;;;;;;1.20;0.60;;;22.50;99.90;;;;;;4954441;29;20212;-74
2021/09/24 13:40:35;;;;;;;1.75;0.55;;;22.60;99.90;;;;;;4954209;29;20208;-73
2021/09/24 13:43:03;;;;;;;3.15;0.70;;;22.60;99.90;;;;;;4954031;29;20323;-73
2021/09/24 13:45:30;;;;;;;0.88;0.40;;;22.60;99.90;;;;;;4953887;29;20544;-75
2021/09/24 13:47:57;;;;;;;1.08;0.40;;;22.70;99.90;;;;;;4953917;29;20216;-74
2021/09/24 13:50:23;;;;;;;1.92;0.50;;;22.80;99.90;;;;;;4953969;29;20666;-74
2021/09/24 13:52:53;;;;;;;0.50;0.40;;;22.90;99.90;;;;;;4953998;28;20576;-74
2021/09/24 13:55:20;;;;;;;2.97;0.35;;;22.80;99.90;;;;;;4957421;29;20232;-75
2021/09/24 13:57:47;;;;;;;0.88;0.45;;;22.90;99.90;;;;;;4957299;29;20677;-74
2021/09/24 14:00:15;;;;;;;2.55;0.40;;;22.90;99.90;;;;;;4957389;29;20548;-75
2021/09/24 14:02:43;;;;;;;0.80;0.45;;;23.00;99.90;;;;;;4953328;23;20225;-73
2021/09/24 14:05:11;;;;;;;0.60;0.55;;;23.00;99.90;;;;;;4919613;29;20210;-73
2021/09/24 14:07:38;;;;;;;1.05;0.47;;;23.10;99.90;;;;;;4919228;29;20209;-72
2021/09/24 14:10:08;;;;;;;1.70;0.50;;;22.90;99.90;;;;;;4919049;29;20215;-73
2021/09/24 14:12:36;;;;;;;0.75;0.50;;;22.80;99.90;;;;;;4919006;29;20233;-72
2021/09/24 14:15:03;;;;;;;1.50;0.40;;;22.60;99.90;;;;;;4919517;29;20248;-71
2021/09/24 14:17:30;;;;;;;1.10;0.50;;;22.50;99.90;;;;;;4919789;29;20213;-73
2021/09/24 14:19:57;;;;;;;2.55;0.40;;;22.50;99.90;;;;;;4919205;29;20217;-72
2021/09/24 14:22:24;;;;;;;2.75;0.50;;;22.50;99.90;;;;;;4919233;29;20229;-72
2021/09/24 14:24:50;;;;;;;0.82;0.70;;;22.60;99.90;;;;;;4919139;29;20213;-73
2021/09/24 14:27:18;;;;;;;1.55;0.60;;;22.70;99.90;;;;;;4919000;29;20205;-73
2021/09/24 14:29:45;;;;;;;3.67;0.50;;;22.70;99.90;;;;;;4918716;29;20213;-74
2021/09/24 14:32:12;;;;;;;0.70;0.40;;;22.70;99.90;;;;;;4921602;29;20226;-74
2021/09/24 14:34:40;;;;;;;2.25;0.40;;;22.70;99.90;;;;;;4919812;29;20233;-73
2021/09/24 14:37:07;;;;;;;0.40;0.40;;;22.80;99.90;;;;;;4919033;29;20237;-74
2021/09/24 14:39:34;;;;;;;1.02;0.60;;;22.90;99.90;;;;;;4918583;29;20218;-70
2021/09/24 14:42:01;;;;;;;0.90;0.55;;;22.90;99.90;;;;;;4918431;29;20235;-72
2021/09/24 14:44:30;;;;;;;0.60;0.47;;;22.70;99.90;;;;;;4918377;29;20718;-72
2021/09/24 14:46:57;;;;;;;0.73;0.50;;;22.60;99.90;;;;;;4918293;29;20210;-73
2021/09/24 14:49:23;;;;;;;2.15;0.47;;;22.50;99.90;;;;;;4918532;29;20680;-72
2021/09/24 14:51:51;;;;;;;1.25;0.50;;;22.40;99.90;;;;;;4918093;29;20339;-70
2021/09/24 14:54:18;;;;;;;0.68;0.50;;;22.50;99.90;;;;;;4918550;29;20233;-73
2021/09/24 14:56:45;;;;;;;0.32;0.32;;;22.50;99.90;;;;;;4918438;29;20209;-73
2021/09/24 14:59:13;;;;;;;0.68;0.40;;;22.40;99.90;;;;;;4918451;29;20213;-73
2021/09/24 15:01:41;;;;;;;1.73;0.52;;;22.40;99.90;;;;;;4901517;29;20229;-71
2021/09/24 15:04:08;;;;;;;0.57;0.50;;;22.30;99.90;;;;;;4918258;29;20210;-74
2021/09/24 15:06:35;;;;;;;0.40;0.32;;;22.30;99.90;;;;;;4917756;29;20225;-74
2021/09/24 15:09:01;;;;;;;2.67;0.50;;;22.20;99.90;;;;;;4918113;29;20210;-74
2021/09/24 15:11:28;;;;;;;0.60;0.30;;;22.40;99.90;;;;;;4918129;29;20240;-73
2021/09/24 15:13:55;;;;;;;0.45;0.40;;;22.50;99.90;;;;;;4918350;29;20214;-74
2021/09/24 15:16:22;;;;;;;2.78;0.52;;;22.60;99.90;;;;;;4918389;29;20241;-73
2021/09/24 15:18:50;;;;;;;1.80;0.47;;;22.70;99.90;;;;;;4918509;29;20210;-75
2021/09/24 15:21:18;;;;;;;0.68;0.50;;;22.60;99.90;;;;;;4917776;29;20300;-73
2021/09/24 15:23:45;;;;;;;0.40;0.30;;;22.50;99.90;;;;;;4917813;29;20661;-74
2021/09/24 15:26:12;;;;;;;0.38;0.30;;;22.50;99.90;;;;;;4917556;29;20673;-75
2021/09/24 15:28:39;;;;;;;0.70;0.50;;;22.40;99.90;;;;;;4918178;29;20217;-74
2021/09/24 15:31:06;;;;;;;0.50;0.40;;;22.30;99.90;;;;;;4917965;29;20214;-75
2021/09/24 15:33:33;;;;;;;1.40;0.40;;;22.20;99.90;;;;;;4917970;29;20205;-74
2021/09/24 15:36:02;;;;;;;0.43;0.40;;;22.20;99.90;;;;;;4917606;29;20332;-74
2021/09/24 15:38:28;;;;;;;0.82;0.45;;;22.20;99.90;;;;;;4917721;29;20213;-75
2021/09/24 15:40:56;;;;;;;1.02;0.50;;;22.30;99.90;;;;;;4917588;29;20209;-74
2021/09/24 15:43:24;;;;;;;0.80;0.30;;;22.20;99.90;;;;;;4917700;29;20337;-75
2021/09/24 15:45:53;;;;;;;0.40;0.30;;;22.20;99.90;;;;;;4917625;29;20257;-72
2021/09/24 15:48:20;;;;;;;1.65;0.40;;;22.20;99.90;;;;;;4917290;29;20264;-71
2021/09/24 15:50:47;;;;;;;0.63;0.32;;;22.10;99.90;;;;;;4917227;29;20209;-71
2021/09/24 15:53:15;;;;;;;0.32;0.30;;;22.00;99.90;;;;;;4917510;29;20230;-73
2021/09/24 15:55:42;;;;;;;0.50;0.40;;;22.00;99.90;;;;;;4918575;29;20243;-69
2021/09/24 15:58:09;;;;;;;0.60;0.30;;;22.10;99.90;;;;;;4917594;29;20210;-73
2021/09/24 16:00:36;;;;;;;2.38;0.47;;;22.00;99.90;;;;;;4917554;29;20214;-72
2021/09/24 16:03:02;;;;;;;0.73;0.50;;;22.00;99.90;;;;;;4917104;29;20233;-73
2021/09/24 16:05:29;;;;;;;1.33;0.47;;;21.90;99.90;;;;;;4917115;29;20213;-74
2021/09/24 16:07:56;;;;;;;0.77;0.47;;;21.90;99.90;;;;;;4917248;29;20216;-74
2021/09/24 16:10:24;;;;;;;1.08;0.40;;;21.90;99.90;;;;;;4917416;29;20216;-74
2021/09/24 16:12:51;;;;;;;0.30;0.30;;;21.80;99.90;;;;;;4917258;29;20257;-73
2021/09/24 16:15:18;;;;;;;0.50;0.30;;;21.80;99.90;;;;;;4917054;29;20234;-74
2021/09/24 16:17:45;;;;;;;1.52;0.70;;;21.70;99.90;;;;;;4916538;29;20210;-75
2021/09/24 16:20:13;;;;;;;1.23;0.40;;;21.80;99.90;;;;;;4917190;29;20219;-74
2021/09/24 16:22:40;;;;;;;0.55;0.50;;;21.70;99.90;;;;;;4916997;29;20233;-73
2021/09/24 16:25:08;;;;;;;0.60;0.38;;;21.80;99.90;;;;;;4917356;29;20220;-74
2021/09/24 16:27:36;;;;;;;0.80;0.47;;;21.70;99.90;;;;;;4917077;29;20210;-73
2021/09/24 16:30:06;;;;;;;0.50;0.35;;;21.50;99.90;;;;;;4916870;29;20209;-74
2021/09/24 16:32:33;;;;;;;0.77;0.50;;;21.50;99.90;;;;;;4916678;29;20229;-74
2021/09/24 16:34:59;;;;;;;0.77;0.47;;;21.40;99.90;;;;;;4916987;29;20699;-74
2021/09/24 16:37:28;;;;;;;1.15;0.75;;;21.30;99.90;;;;;;4916958;29;20206;-75
2021/09/24 16:39:55;;;;;;;0.70;0.50;;;21.20;99.90;;;;;;4917030;29;20213;-75
2021/09/24 16:42:22;;;;;;;1.02;0.57;;;21.30;99.90;;;;;;4916702;29;20728;-74
2021/09/24 16:44:50;;;;;;;0.85;0.60;;;21.20;99.90;;;;;;4916796;29;20206;-74
2021/09/24 16:47:17;;;;;;;0.82;0.57;;;21.30;99.90;;;;;;4916631;29;20209;-73
2021/09/24 16:49:44;;;;;;;1.65;0.60;;;21.10;99.90;;;;;;4916637;29;20217;-75
2021/09/24 16:52:11;;;;;;;2.15;0.63;;;21.10;99.90;;;;;;4916254;29;20233;-74
2021/09/24 16:54:37;;;;;;;1.45;0.70;;;21.20;99.90;;;;;;4909924;29;20209;-77
2021/09/24 16:57:04;;;;;;;1.13;0.57;;;21.20;99.90;;;;;;4905973;29;20244;-73
2021/09/24 16:59:31;;;;;;;1.95;0.40;;;21.10;99.90;;;;;;4909553;29;20210;-72
2021/09/24 17:01:59;;;;;;;0.88;0.60;;;20.90;99.90;;;;;;4907533;29;20237;-73
2021/09/24 17:04:27;;;;;;;1.98;0.57;;;20.80;99.90;;;;;;4913051;29;20213;-74
2021/09/24 17:06:54;;;;;;;1.52;0.60;;;20.80;99.90;;;;;;4903204;29;20268;-73
2021/09/24 17:09:20;;;;;;;1.73;0.60;;;20.80;99.90;;;;;;4911683;29;20205;-75
2021/09/24 17:11:47;;;;;;;1.20;0.80;;;20.80;99.90;;;;;;4904159;29;20222;-73
2021/09/24 17:14:14;;;;;;;1.60;0.88;;;20.80;99.90;;;;;;4913640;29;20210;-73
2021/09/24 17:16:41;;;;;;;1.08;0.60;;;20.70;99.90;;;;;;4909484;29;20768;-71
2021/09/24 17:19:09;;;;;;;1.13;0.88;;;20.60;99.90;;;;;;4913494;29;20214;-73
2021/09/24 17:21:36;;;;;;;1.08;0.70;;;20.60;99.90;;;;;;4905837;29;20233;-73
2021/09/24 17:24:03;;;;;;;1.17;0.80;;;20.60;99.90;;;;;;4905278;29;20210;-74
2021/09/24 17:26:33;;;;;;;1.42;0.80;;;20.60;99.90;;;;;;4908160;29;20694;-72
2021/09/24 17:29:00;;;;;;;1.65;0.77;;;20.40;99.90;;;;;;4912026;29;20212;-73
2021/09/24 17:31:27;;;;;;;2.85;0.98;;;20.30;99.90;;;;;;4911712;29;20243;-73
2021/09/24 17:33:54;;;;;;;1.15;0.80;;;20.20;99.90;;;;;;4919401;29;20212;-73
2021/09/24 17:36:22;;;;;;;5.13;0.75;;;20.10;99.90;;;;;;4911284;29;20245;-75
2021/09/24 17:38:49;;;;;;;1.50;0.80;;;20.00;99.90;;;;;;4919454;29;20210;-72
2021/09/24 17:41:18;;;;;;;1.23;0.77;;;19.80;99.90;;;;;;4913978;29;20216;-72
2021/09/24 17:43:45;;;;;;;1.75;1.00;;;19.70;99.90;;;;;;4915712;29;20209;-74
2021/09/24 17:46:11;;;;;;;2.53;1.58;;;19.60;99.90;;;;;;4914455;29;20699;-71
2021/09/24 17:48:38;;;;;;;1.85;1.10;;;19.50;99.90;;;;;;4917023;29;20212;-71
2021/09/24 17:51:05;;;;;;;2.45;1.35;;;19.50;99.90;;;;;;4912166;29;20209;-73
2021/09/24 17:53:34;;;;;;;2.55;1.08;;;19.40;99.90;;;;;;4915064;29;20206;-74
2021/09/24 17:56:01;;;;;;;2.60;0.90;;;19.30;99.90;;;;;;4906808;29;20233;-73
2021/09/24 17:58:28;;;;;;;2.25;1.27;;;19.30;99.90;;;;;;4912649;29;20213;-72
2021/09/24 18:00:55;;;;;;;2.00;1.23;;;19.30;99.90;;;;;;4912621;29;20296;-73
2021/09/24 18:03:22;;;;;;;3.13;1.10;;;19.20;99.90;;;;;;4912561;29;20233;-72
2021/09/24 18:05:49;;;;;;;2.47;1.23;;;19.20;99.90;;;;;;4910034;29;20210;-71
2021/09/24 18:08:16;;;;;;;2.67;1.45;;;19.20;99.90;;;;;;4910442;29;20558;-74
2021/09/24 18:10:44;;;;;;;2.10;1.23;;;19.20;99.90;;;;;;4914783;29;20210;-74
2021/09/24 18:13:11;;;;;;;4.27;1.60;;;19.30;99.90;;;;;;4913152;29;20230;-76
2021/09/24 18:15:38;;;;;;;3.47;1.60;;;19.20;99.90;;;;;;4904767;29;20234;-75
2021/09/24 18:18:06;;;;;;;3.30;1.50;;;19.20;99.90;;;;;;4905958;29;20231;-77
2021/09/24 18:20:32;;;;;;;3.65;1.80;;;19.00;99.90;;;;;;4911070;29;20210;-74
2021/09/24 18:22:59;;;;;;;4.80;1.80;;;18.90;99.90;;;;;;4917111;29;20247;-74
2021/09/24 18:25:27;;;;;;;2.40;1.70;;;18.80;99.90;;;;;;4910631;29;20213;-74
2021/09/24 18:27:55;;;;;;;4.03;1.90;;;18.60;99.90;;;;;;4909214;29;20203;-72
2021/09/24 18:30:22;;;;;;;3.33;1.57;;;18.60;99.90;;;;;;4916192;29;20214;-73
2021/09/24 18:32:49;;;;;;;3.60;1.60;;;18.50;99.90;;;;;;4907125;29;20293;-73
2021/09/24 18:35:16;;;;;;;4.17;1.63;;;18.40;99.90;;;;;;4909701;29;20577;-74
2021/09/24 18:37:44;;;;;;;2.43;1.60;;;18.30;99.90;;;;;;4908727;29;20242;-71
2021/09/24 18:40:12;;;;;;;2.43;1.47;;;18.40;99.90;;;;;;4910440;29;20216;-73
2021/09/24 18:42:40;;;;;;;4.30;1.60;;;18.30;99.90;;;;;;4910134;29;20728;-72
2021/09/24 18:45:10;;;;;;;3.47;1.93;;;18.10;99.90;;;;;;4908085;29;20689;-74
2021/09/24 18:47:36;;;;;;;4.07;2.00;;;18.10;99.90;;;;;;4910331;29;20218;-73
2021/09/24 18:50:05;;;;;;;3.03;1.40;;;18.10;99.90;;;;;;4905338;29;20326;-73
2021/09/24 18:52:31;;;;;;;3.73;1.63;;;18.00;99.90;;;;;;4911810;29;20226;-73
2021/09/24 18:54:58;;;;;;;3.47;1.73;;;18.00;99.90;;;;;;4911435;29;20210;-73
2021/09/24 18:57:25;;;;;;;3.30;1.60;;;18.00;99.90;;;;;;4909361;29;20249;-74
2021/09/24 18:59:52;;;;;;;3.67;1.90;;;18.00;99.90;;;;;;4908104;29;20205;-73
2021/09/24 19:02:20;;;;;;;4.00;1.70;;;18.00;99.90;;;;;;4902498;29;20238;-73
2021/09/24 19:04:47;;;;;;;4.80;2.10;;;17.90;99.90;;;;;;4907114;29;20665;-74
2021/09/24 19:07:14;;;;;;;2.50;1.60;;;17.80;99.90;;;;;;4907972;29;20233;-73
2021/09/24 19:09:41;;;;;;;2.17;1.40;;;17.80;99.90;;;;;;4905022;29;20217;-73
2021/09/24 19:12:08;;;;;;;4.17;2.20;;;17.80;99.90;;;;;;4910572;29;20229;-74
2021/09/24 19:14:35;;;;;;;3.63;2.00;;;17.80;99.90;;;;;;4906426;29;20210;-71
2021/09/24 19:17:02;;;;;;;2.57;1.60;;;17.80;99.90;;;;;;4907658;29;20242;-71
2021/09/24 19:19:30;;;;;;;4.70;1.97;;;17.70;99.90;;;;;;4904717;29;20665;-72
2021/09/24 19:21:57;;;;;;;2.57;1.73;;;17.60;99.90;;;;;;4907221;29;20229;-72
2021/09/24 19:24:25;;;;;;;3.93;1.73;;;17.60;99.90;;;;;;4912149;29;20665;-72
2021/09/24 19:26:52;;;;;;;3.83;1.77;;;17.50;99.90;;;;;;4905850;29;20241;-72
2021/09/24 19:29:19;;;;;;;6.10;2.17;;;17.50;99.90;;;;;;4904720;29;20214;-71
2021/09/24 19:31:46;;;;;;;4.30;1.67;;;17.50;99.90;;;;;;4914230;29;20316;-73
2021/09/24 19:34:13;;;;;;;3.83;1.77;;;17.40;99.90;;;;;;4908907;29;20210;-73
2021/09/24 19:36:41;;;;;;;4.53;2.43;;;17.40;99.90;;;;;;4904029;29;20712;-76
2021/09/24 19:39:08;;;;;;;3.27;1.67;;;17.40;99.90;;;;;;4912478;29;20210;-75
2021/09/24 19:41:35;;;;;;;1.70;1.20;;;17.50;99.90;;;;;;4909565;29;20743;-72
2021/09/24 19:44:01;;;;;;;2.53;1.40;;;17.40;99.90;;;;;;4909179;29;20211;-73
2021/09/24 19:46:28;;;;;;;3.80;2.03;;;17.40;99.90;;;;;;4906951;29;20224;-73
2021/09/24 19:48:55;;;;;;;5.67;2.00;;;17.40;99.90;;;;;;4903825;29;20573;-72
2021/09/24 19:51:22;;;;;;;4.63;1.93;;;17.30;99.90;;;;;;4909012;29;20233;-72
2021/09/24 19:53:52;;;;;;;3.27;1.80;;;17.30;99.90;;;;;;4913167;29;20207;-73
2021/09/24 19:56:19;;;;;;;5.07;1.80;;;17.30;99.90;;;;;;4908439;29;20261;-73
2021/09/24 19:58:46;;;;;;;3.80;1.90;;;17.20;99.90;;;;;;4905617;29;20219;-73
2021/09/24 20:01:17;;;;;;;3.87;1.70;;;17.10;99.90;;;;;;4903142;29;20251;-75
2021/09/24 20:03:43;;;;;;;3.57;1.70;;;17.10;99.90;;;;;;4909571;29;20221;-73
2021/09/24 20:06:10;;;;;;;4.27;1.60;;;17.10;99.90;;;;;;4906330;29;20673;-74
2021/09/24 20:08:37;;;;;;;4.40;2.03;;;17.10;99.90;;;;;;4909475;29;20210;-73
2021/09/24 20:11:05;;;;;;;25.80;15.23;;;17.10;99.90;;;;;;4905837;29;20214;-73
2021/09/24 20:13:32;;;;;;;5.33;3.10;;;17.10;99.90;;;;;;4912916;29;20209;-73
2021/09/24 20:15:59;;;;;;;3.40;1.63;;;17.00;99.90;;;;;;4906380;29;20571;-72
2021/09/24 20:18:26;;;;;;;3.63;1.97;;;17.00;99.90;;;;;;4906611;29;20214;-73
2021/09/24 20:20:53;;;;;;;3.40;1.67;;;16.90;99.90;;;;;;4911769;29;20201;-73
2021/09/24 20:23:20;;;;;;;4.93;1.80;;;16.90;99.90;;;;;;4911006;29;20602;-74
2021/09/24 20:25:47;;;;;;;2.73;1.40;;;16.80;99.90;;;;;;4912350;29;20197;-74
2021/09/24 20:28:15;;;;;;;3.03;1.50;;;16.80;99.90;;;;;;4911656;29;20210;-74
2021/09/24 20:30:42;;;;;;;4.17;1.70;;;16.70;99.90;;;;;;4907164;29;20213;-73
2021/09/24 20:33:09;;;;;;;2.90;1.90;;;16.70;99.90;;;;;;4916402;29;20234;-73
2021/09/24 20:35:39;;;;;;;3.67;1.90;;;16.70;99.90;;;;;;4904188;29;20305;-73
2021/09/24 20:38:06;;;;;;;4.40;1.70;;;16.70;99.90;;;;;;4905397;29;20629;-73
2021/09/24 20:40:34;;;;;;;3.90;1.80;;;16.70;99.90;;;;;;4907453;29;20207;-73
2021/09/24 20:43:01;;;;;;;3.67;1.80;;;16.70;99.90;;;;;;4905571;29;20721;-74
2021/09/24 20:45:29;;;;;;;4.67;1.80;;;16.70;99.90;;;;;;4905964;29;20214;-74
2021/09/24 20:47:57;;;;;;;2.87;1.77;;;16.70;99.90;;;;;;4912080;29;20201;-74
2021/09/24 20:50:25;;;;;;;2.70;1.50;;;16.60;99.90;;;;;;4904604;29;20211;-74
2021/09/24 20:52:53;;;;;;;3.53;1.87;;;16.60;99.90;;;;;;4906036;29;20588;-73
2021/09/24 20:55:20;;;;;;;3.33;2.00;;;16.60;99.90;;;;;;4908937;29;20601;-74
2021/09/24 20:57:47;;;;;;;4.07;1.90;;;16.70;99.90;;;;;;4905967;29;20234;-73